createdAt,value
2018-04-14T00:00:57.986Z,99.99
2018-04-14T00:01:58.600Z,99.99
2018-04-14T00:02:59.176Z,99.99
2018-04-14T00:03:59.752Z,99.99
2018-04-14T00:05:00.329Z,99.99
2018-04-14T00:06:00.955Z,99.99
2018-04-14T00:07:01.573Z,99.99
2018-04-14T00:08:02.150Z,99.99
2018-04-14T00:09:02.727Z,99.99
2018-04-14T00:10:03.311Z,99.99
2018-04-14T00:11:03.932Z,99.99
2018-04-14T00:12:04.507Z,99.99
2018-04-14T00:13:05.093Z,99.99
2018-04-14T00:14:05.755Z,99.99
2018-04-14T00:15:06.332Z,99.99
2018-04-14T00:16:06.909Z,99.99
2018-04-14T00:17:07.484Z,99.99
2018-04-14T00:18:08.062Z,99.99
2018-04-14T00:19:08.639Z,99.99
2018-04-14T00:20:09.217Z,99.99
2018-04-14T00:21:09.793Z,99.99
2018-04-14T00:22:10.368Z,99.99
2018-04-14T00:23:10.943Z,99.99
2018-04-14T00:24:11.519Z,99.99
2018-04-14T00:25:12.094Z,99.99
2018-04-14T00:26:12.719Z,99.99
2018-04-14T00:27:13.297Z,99.99
2018-04-14T00:28:13.872Z,99.99
2018-04-14T00:29:14.599Z,99.99
2018-04-14T00:30:15.179Z,99.99
2018-04-14T00:31:15.752Z,99.99
2018-04-14T00:32:16.328Z,99.99
2018-04-14T00:33:16.905Z,99.99
2018-04-14T00:34:17.632Z,99.99
2018-04-14T00:35:18.209Z,99.99
2018-04-14T00:36:18.786Z,99.99
2018-04-14T00:37:19.361Z,99.99
2018-04-14T00:38:19.943Z,99.99
2018-04-14T00:39:20.518Z,99.99
2018-04-14T00:40:21.092Z,99.99
2018-04-14T00:41:21.668Z,99.99
2018-04-14T00:42:22.248Z,99.99
2018-04-14T00:43:22.826Z,99.99
2018-04-14T00:44:23.398Z,99.99
2018-04-14T00:45:24.126Z,99.99
2018-04-14T00:46:24.701Z,99.99
2018-04-14T00:47:25.280Z,99.99
2018-04-14T00:48:25.858Z,99.99
2018-04-14T00:49:26.433Z,99.99
2018-04-14T00:50:27.061Z,99.99
2018-04-14T00:51:27.640Z,99.99
2018-04-14T00:52:28.216Z,99.99
2018-04-14T00:53:28.997Z,99.99
2018-04-14T00:54:29.574Z,99.99
2018-04-14T00:55:30.148Z,99.99
2018-04-14T00:56:30.725Z,99.99
2018-04-14T00:57:31.299Z,99.99
2018-04-14T00:58:31.876Z,99.99
2018-04-14T00:59:32.455Z,99.99
2018-04-14T01:00:33.029Z,99.99
2018-04-14T01:01:33.609Z,99.99
2018-04-14T01:02:34.185Z,99.99
2018-04-14T01:03:34.763Z,99.99
2018-04-14T01:04:35.336Z,99.99
2018-04-14T01:05:35.911Z,99.99
2018-04-14T01:06:36.487Z,99.99
2018-04-14T01:07:37.113Z,99.99
2018-04-14T01:08:37.739Z,99.99
2018-04-14T01:09:38.314Z,99.99
2018-04-14T01:10:38.890Z,99.99
2018-04-14T01:11:39.466Z,99.99
2018-04-14T01:12:40.091Z,99.99
2018-04-14T01:13:40.669Z,99.99
2018-04-14T01:14:41.245Z,99.99
2018-04-14T01:15:41.824Z,99.99
2018-04-14T01:16:42.401Z,99.99
2018-04-14T01:17:42.976Z,99.99
2018-04-14T01:18:43.554Z,99.99
2018-04-14T01:19:44.128Z,99.99
2018-04-14T01:20:44.705Z,99.99
2018-04-14T01:21:45.282Z,99.99
2018-04-14T01:22:45.878Z,99.99
2018-04-14T01:23:46.481Z,99.99
2018-04-14T01:24:47.060Z,99.99
2018-04-14T01:25:47.636Z,99.99
2018-04-14T01:26:48.214Z,99.99
2018-04-14T01:27:48.840Z,99.99
2018-04-14T01:28:49.417Z,99.99
2018-04-14T01:29:50.045Z,99.99
2018-04-14T01:30:50.671Z,99.99
2018-04-14T01:31:51.249Z,99.99
2018-04-14T01:32:51.830Z,99.99
2018-04-14T01:33:52.402Z,99.99
2018-04-14T01:34:52.977Z,99.99
2018-04-14T01:35:53.554Z,99.99
2018-04-14T01:36:54.130Z,99.99
2018-04-14T01:37:54.705Z,99.99
2018-04-14T01:38:55.281Z,99.99
2018-04-14T01:39:55.857Z,99.99
2018-04-14T01:40:56.432Z,99.99
2018-04-14T01:41:57.009Z,99.99
2018-04-14T01:42:57.582Z,99.99
2018-04-14T01:43:58.158Z,99.99
2018-04-14T01:44:58.734Z,99.99
2018-04-14T01:45:59.311Z,99.99
2018-04-14T01:46:59.935Z,99.99
2018-04-14T01:48:00.513Z,99.99
2018-04-14T01:49:01.088Z,99.99
2018-04-14T01:50:01.714Z,99.99
2018-04-14T01:51:02.342Z,99.99
2018-04-14T01:52:02.919Z,99.99
2018-04-14T01:53:03.496Z,99.99
2018-04-14T01:54:04.071Z,99.99
2018-04-14T01:55:04.647Z,99.99
2018-04-14T01:56:05.222Z,99.99
2018-04-14T01:57:05.798Z,99.99
2018-04-14T01:58:06.377Z,99.99
2018-04-14T01:59:06.953Z,99.99
2018-04-14T02:00:07.530Z,99.99
2018-04-14T02:01:08.106Z,99.99
2018-04-14T02:02:08.685Z,99.99
2018-04-14T02:03:09.269Z,99.99
2018-04-14T02:04:09.884Z,99.99
2018-04-14T02:05:10.463Z,99.99
2018-04-14T02:06:11.089Z,99.99
2018-04-14T02:07:11.668Z,99.99
2018-04-14T02:08:12.238Z,99.99
2018-04-14T02:09:12.812Z,99.99
2018-04-14T02:10:13.389Z,99.99
2018-04-14T02:11:14.015Z,99.99
2018-04-14T02:12:14.592Z,99.99
2018-04-14T02:13:15.168Z,99.99
2018-04-14T02:14:15.744Z,99.99
2018-04-14T02:15:16.319Z,99.99
2018-04-14T02:16:16.897Z,99.99
2018-04-14T02:17:17.472Z,99.99
2018-04-14T02:18:18.047Z,99.99
2018-04-14T02:19:18.623Z,99.99
2018-04-14T02:20:19.198Z,99.99
2018-04-14T02:21:19.775Z,99.99
2018-04-14T02:22:20.356Z,99.99
2018-04-14T02:23:20.980Z,99.99
2018-04-14T02:24:21.607Z,99.99
2018-04-14T02:25:22.185Z,99.99
2018-04-14T02:26:22.764Z,99.99
2018-04-14T02:27:23.341Z,99.99
2018-04-14T02:28:23.917Z,99.99
2018-04-14T02:29:24.540Z,99.99
2018-04-14T02:30:25.168Z,99.99
2018-04-14T02:31:25.745Z,99.99
2018-04-14T02:32:26.321Z,99.99
2018-04-14T02:33:26.902Z,99.99
2018-04-14T02:34:27.515Z,99.99
2018-04-14T02:35:28.096Z,99.99
2018-04-14T02:36:28.669Z,99.99
2018-04-14T02:37:29.282Z,99.99
2018-04-14T02:38:29.858Z,99.99
2018-04-14T02:39:30.439Z,99.99
2018-04-14T02:40:31.015Z,99.99
2018-04-14T02:41:31.636Z,99.99
2018-04-14T02:42:32.253Z,99.99
2018-04-14T02:43:32.829Z,99.99
2018-04-14T02:44:33.405Z,99.99
2018-04-14T02:45:33.981Z,99.99
2018-04-14T02:46:34.610Z,99.99
2018-04-14T02:47:35.237Z,99.99
2018-04-14T02:48:35.811Z,99.99
2018-04-14T02:49:36.388Z,99.99
2018-04-14T02:50:36.964Z,99.99
2018-04-14T02:51:37.544Z,99.99
2018-04-14T02:52:38.161Z,99.99
2018-04-14T02:53:38.740Z,99.99
2018-04-14T02:54:39.315Z,99.99
2018-04-14T02:55:39.893Z,99.99
2018-04-14T02:56:40.471Z,99.99
2018-04-14T02:57:41.046Z,99.99
2018-04-14T02:58:41.622Z,99.99
2018-04-14T02:59:42.249Z,99.99
2018-04-14T03:00:42.868Z,99.99
2018-04-14T03:01:43.447Z,99.99
2018-04-14T03:02:44.026Z,99.99
2018-04-14T03:03:44.598Z,99.99
2018-04-14T03:04:45.216Z,99.99
2018-04-14T03:05:45.842Z,99.99
2018-04-14T03:06:46.471Z,99.99
2018-04-14T03:07:47.046Z,99.99
2018-04-14T03:08:47.623Z,99.99
2018-04-14T03:09:48.200Z,99.99
2018-04-14T03:10:48.775Z,99.99
2018-04-14T03:11:49.352Z,99.99
2018-04-14T03:12:49.929Z,99.99
2018-04-14T03:13:50.506Z,99.99
2018-04-14T03:14:51.134Z,99.99
2018-04-14T03:15:51.709Z,99.99
2018-04-14T03:16:52.286Z,99.99
2018-04-14T03:17:52.862Z,99.99
2018-04-14T03:18:53.435Z,99.99
2018-04-14T03:19:54.013Z,99.99
2018-04-14T03:20:54.628Z,99.99
2018-04-14T03:21:55.204Z,99.99
2018-04-14T03:22:55.831Z,99.99
2018-04-14T03:23:56.405Z,99.99
2018-04-14T03:24:56.981Z,99.99
2018-04-14T03:25:57.555Z,99.99
2018-04-14T03:26:58.181Z,99.99
2018-04-14T03:27:58.762Z,99.99
2018-04-14T03:28:59.332Z,99.99
2018-04-14T03:29:59.959Z,99.99
2018-04-14T03:31:00.485Z,99.99
2018-04-14T03:32:01.063Z,99.99
2018-04-14T03:33:01.638Z,99.99
2018-04-14T03:34:02.265Z,99.99
2018-04-14T03:35:02.890Z,99.99
2018-04-14T03:36:03.468Z,99.99
2018-04-14T03:37:04.047Z,99.99
2018-04-14T03:38:04.622Z,99.99
2018-04-14T03:39:05.205Z,99.99
2018-04-14T03:40:05.814Z,99.99
2018-04-14T03:41:06.439Z,99.99
2018-04-14T03:42:07.017Z,99.99
2018-04-14T03:43:07.594Z,99.99
2018-04-14T03:44:08.171Z,99.99
2018-04-14T03:45:08.798Z,99.99
2018-04-14T03:46:09.375Z,99.99
2018-04-14T03:47:09.951Z,99.99
2018-04-14T03:48:10.527Z,99.99
2018-04-14T03:49:11.103Z,99.99
2018-04-14T03:50:11.730Z,99.99
2018-04-14T03:51:12.308Z,99.99
2018-04-14T03:52:12.882Z,99.99
2018-04-14T03:53:13.458Z,99.99
2018-04-14T03:54:14.039Z,99.99
2018-04-14T03:55:14.611Z,99.99
2018-04-14T03:56:15.189Z,99.99
2018-04-14T03:57:15.763Z,99.99
2018-04-14T03:58:16.346Z,99.99
2018-04-14T03:59:16.916Z,99.99
2018-04-14T04:00:17.491Z,99.99
2018-04-14T04:01:18.067Z,99.99
2018-04-14T04:02:18.734Z,99.99
2018-04-14T04:03:19.313Z,99.99
2018-04-14T04:04:19.891Z,99.99
2018-04-14T04:05:20.468Z,99.99
2018-04-14T04:06:21.044Z,99.99
2018-04-14T04:07:21.620Z,99.99
2018-04-14T04:08:22.388Z,99.99
2018-04-14T04:09:23.010Z,99.99
2018-04-14T04:10:23.586Z,99.99
2018-04-14T04:11:24.163Z,99.99
2018-04-14T04:12:24.739Z,99.99
2018-04-14T04:13:25.316Z,99.99
2018-04-14T04:14:25.892Z,99.99
2018-04-14T04:15:26.470Z,99.99
2018-04-14T04:16:27.046Z,99.99
2018-04-14T04:17:27.623Z,99.99
2018-04-14T04:18:28.200Z,99.99
2018-04-14T04:19:28.776Z,99.99
2018-04-14T04:20:29.354Z,99.99
2018-04-14T04:21:29.981Z,99.99
2018-04-14T04:22:30.557Z,99.99
2018-04-14T04:23:31.134Z,99.99
2018-04-14T04:24:31.712Z,99.99
2018-04-14T04:25:32.288Z,99.99
2018-04-14T04:26:32.867Z,99.99
2018-04-14T04:27:33.535Z,99.99
2018-04-14T04:28:34.110Z,99.99
2018-04-14T04:29:34.688Z,99.99
2018-04-14T04:30:35.317Z,99.99
2018-04-14T04:31:35.892Z,99.99
2018-04-14T04:32:36.469Z,99.99
2018-04-14T04:33:37.043Z,99.99
2018-04-14T04:34:37.618Z,99.99
2018-04-14T04:35:38.196Z,99.99
2018-04-14T04:36:38.769Z,99.99
2018-04-14T04:37:39.394Z,99.99
2018-04-14T04:38:39.969Z,99.99
2018-04-14T04:39:40.546Z,99.99
2018-04-14T04:40:41.121Z,99.99
2018-04-14T04:41:41.697Z,99.99
2018-04-14T04:42:42.325Z,99.99
2018-04-14T04:43:42.943Z,99.99
2018-04-14T04:44:43.520Z,99.99
2018-04-14T04:45:44.102Z,99.99
2018-04-14T04:46:44.674Z,99.99
2018-04-14T04:47:45.299Z,99.99
2018-04-14T04:48:45.899Z,99.99
2018-04-14T04:49:46.453Z,99.99
2018-04-14T04:50:47.031Z,99.99
2018-04-14T04:51:47.610Z,99.99
2018-04-14T04:52:48.185Z,99.99
2018-04-14T04:53:48.761Z,99.99
2018-04-14T04:54:49.387Z,99.99
2018-04-14T04:55:49.963Z,99.99
2018-04-14T04:56:50.544Z,99.99
2018-04-14T04:57:51.117Z,99.99
2018-04-14T04:58:51.695Z,99.99
2018-04-14T04:59:52.319Z,99.99
2018-04-14T05:00:52.894Z,99.99
2018-04-14T05:01:53.472Z,99.99
2018-04-14T05:02:54.098Z,99.99
2018-04-14T05:03:54.675Z,99.99
2018-04-14T05:04:55.249Z,99.99
2018-04-14T05:05:55.825Z,99.99
2018-04-14T05:06:56.401Z,99.99
2018-04-14T05:07:56.978Z,99.99
2018-04-14T05:08:57.604Z,99.99
2018-04-14T05:09:58.178Z,99.99
2018-04-14T05:10:58.755Z,99.99
2018-04-14T05:11:59.331Z,99.99
2018-04-14T05:12:59.905Z,99.99
2018-04-14T05:14:00.480Z,99.99
2018-04-14T05:15:01.055Z,99.99
2018-04-14T05:16:01.634Z,99.99
2018-04-14T05:17:02.253Z,99.99
2018-04-14T05:18:02.919Z,99.99
2018-04-14T05:19:03.545Z,99.99
2018-04-14T05:20:04.120Z,99.99
2018-04-14T05:21:04.844Z,99.99
2018-04-14T05:22:05.420Z,99.99
2018-04-14T05:23:06.000Z,99.99
2018-04-14T05:24:06.582Z,99.99
2018-04-14T05:25:07.196Z,99.99
2018-04-14T05:26:07.826Z,99.99
2018-04-14T05:27:08.444Z,99.99
2018-04-14T05:28:09.061Z,99.99
2018-04-14T05:29:09.640Z,99.99
2018-04-14T05:30:10.217Z,99.99
2018-04-14T05:31:10.846Z,99.99
2018-04-14T05:32:11.425Z,99.99
2018-04-14T05:33:12.197Z,99.99
2018-04-14T05:34:12.773Z,99.99
2018-04-14T05:35:13.349Z,99.99
2018-04-14T05:36:13.975Z,99.99
2018-04-14T05:37:14.550Z,99.99
2018-04-14T05:38:15.127Z,99.99
2018-04-14T05:39:15.704Z,99.99
2018-04-14T05:40:16.280Z,99.99
2018-04-14T05:41:16.855Z,99.99
2018-04-14T05:42:17.432Z,99.99
2018-04-14T05:43:18.005Z,99.99
2018-04-14T05:44:18.581Z,99.99
2018-04-14T05:45:19.157Z,99.99
2018-04-14T05:46:19.773Z,99.99
2018-04-14T05:47:20.348Z,99.99
2018-04-14T05:48:20.980Z,99.99
2018-04-14T05:49:21.593Z,99.99
2018-04-14T05:50:22.219Z,99.99
2018-04-14T05:51:22.793Z,99.99
2018-04-14T05:52:23.420Z,99.99
2018-04-14T05:53:23.996Z,99.99
2018-04-14T05:54:24.574Z,99.99
2018-04-14T05:55:25.151Z,99.99
2018-04-14T05:56:25.728Z,99.99
2018-04-14T05:57:26.304Z,99.99
2018-04-14T05:58:26.880Z,99.99
2018-04-14T05:59:27.455Z,99.99
2018-04-14T06:00:28.031Z,99.99
2018-04-14T06:01:28.660Z,99.99
2018-04-14T06:02:29.234Z,99.99
2018-04-14T06:03:29.811Z,99.99
2018-04-14T06:04:30.385Z,99.99
2018-04-14T06:05:30.961Z,99.99
2018-04-14T06:06:31.635Z,99.99
2018-04-14T06:07:32.160Z,99.99
2018-04-14T06:08:32.737Z,99.99
2018-04-14T06:09:33.361Z,99.99
2018-04-14T06:10:33.942Z,99.99
2018-04-14T06:11:34.510Z,99.99
2018-04-14T06:12:35.087Z,99.99
2018-04-14T06:13:35.661Z,99.99
2018-04-14T06:14:36.236Z,99.99
2018-04-14T06:15:36.963Z,99.99
2018-04-14T06:16:37.539Z,99.99
2018-04-14T06:17:38.114Z,99.99
2018-04-14T06:18:38.691Z,99.99
2018-04-14T06:19:39.266Z,99.99
2018-04-14T06:20:39.845Z,99.99
2018-04-14T06:21:40.422Z,99.99
2018-04-14T06:22:41.005Z,99.99
2018-04-14T06:23:41.573Z,99.99
2018-04-14T06:24:42.149Z,99.99
2018-04-14T06:25:42.774Z,99.99
2018-04-14T06:26:43.349Z,99.99
2018-04-14T06:27:43.980Z,99.99
2018-04-14T06:28:44.555Z,99.99
2018-04-14T06:29:45.127Z,99.99
2018-04-14T06:30:45.704Z,99.99
2018-04-14T06:31:46.328Z,99.99
2018-04-14T06:32:46.907Z,99.99
2018-04-14T06:33:47.544Z,99.99
2018-04-14T06:34:48.068Z,99.99
2018-04-14T06:35:48.635Z,99.99
2018-04-14T06:36:49.209Z,99.99
2018-04-14T06:37:49.784Z,99.99
2018-04-14T06:38:50.358Z,99.99
2018-04-14T06:39:50.984Z,99.99
2018-04-14T06:40:51.611Z,99.99
2018-04-14T06:41:52.185Z,99.99
2018-04-14T06:42:52.759Z,99.99
2018-04-14T06:43:53.335Z,99.99
2018-04-14T06:44:53.960Z,99.99
2018-04-14T06:45:54.537Z,99.99
2018-04-14T06:46:55.114Z,99.99
2018-04-14T06:47:55.740Z,99.99
2018-04-14T06:48:56.313Z,99.99
2018-04-14T06:49:56.887Z,99.99
2018-04-14T06:50:57.513Z,99.99
2018-04-14T06:51:58.090Z,99.99
2018-04-14T06:52:58.666Z,99.99
2018-04-14T06:53:59.243Z,99.99
2018-04-14T06:54:59.819Z,99.99
2018-04-14T06:56:00.396Z,99.99
2018-04-14T06:57:00.972Z,99.99
2018-04-14T06:58:01.548Z,99.99
2018-04-14T06:59:02.125Z,99.99
2018-04-14T07:00:02.701Z,99.99
2018-04-14T07:01:03.281Z,99.99
2018-04-14T07:02:03.856Z,99.99
2018-04-14T07:03:04.483Z,99.99
2018-04-14T07:04:05.061Z,99.99
2018-04-14T07:05:05.638Z,99.99
2018-04-14T07:06:06.264Z,99.99
2018-04-14T07:07:06.840Z,99.99
2018-04-14T07:08:07.415Z,99.99
2018-04-14T07:09:07.993Z,99.99
2018-04-14T07:10:08.569Z,99.99
2018-04-14T07:11:09.297Z,99.99
2018-04-14T07:12:09.874Z,99.99
2018-04-14T07:13:10.449Z,99.99
2018-04-14T07:14:11.073Z,99.99
2018-04-14T07:15:11.651Z,99.99
2018-04-14T07:16:12.217Z,99.99
2018-04-14T07:17:12.791Z,99.99
2018-04-14T07:18:13.366Z,99.99
2018-04-14T07:19:13.990Z,99.99
2018-04-14T07:20:14.565Z,99.99
2018-04-14T07:21:15.144Z,99.99
2018-04-14T07:22:15.719Z,99.99
2018-04-14T07:23:16.296Z,99.99
2018-04-14T07:24:16.919Z,99.99
2018-04-14T07:25:17.494Z,99.99
2018-04-14T07:26:18.069Z,99.99
2018-04-14T07:27:18.645Z,99.99
2018-04-14T07:28:19.273Z,99.99
2018-04-14T07:29:19.849Z,99.99
2018-04-14T07:30:20.423Z,99.99
2018-04-14T07:31:20.998Z,99.99
2018-04-14T07:32:21.604Z,99.99
2018-04-14T07:33:22.152Z,99.99
2018-04-14T07:34:22.763Z,99.99
2018-04-14T07:35:23.380Z,99.99
2018-04-14T07:36:24.006Z,99.99
2018-04-14T07:37:24.584Z,99.99
2018-04-14T07:38:25.159Z,99.99
2018-04-14T07:39:25.737Z,99.99
2018-04-14T07:40:26.313Z,99.99
2018-04-14T07:41:26.888Z,99.99
2018-04-14T07:42:27.465Z,99.99
2018-04-14T07:43:28.193Z,99.99
2018-04-14T07:44:28.768Z,99.99
2018-04-14T07:45:29.345Z,99.99
2018-04-14T07:46:29.922Z,99.99
2018-04-14T07:47:30.499Z,99.99
2018-04-14T07:48:31.076Z,99.99
2018-04-14T07:49:31.651Z,99.99
2018-04-14T07:50:32.276Z,99.99
2018-04-14T07:51:32.854Z,99.99
2018-04-14T07:52:33.430Z,99.99
2018-04-14T07:53:34.054Z,99.99
2018-04-14T07:54:34.630Z,99.99
2018-04-14T07:55:35.206Z,99.99
2018-04-14T07:56:35.781Z,99.99
2018-04-14T07:57:36.355Z,99.99
2018-04-14T07:58:36.930Z,99.99
2018-04-14T07:59:37.507Z,99.99
2018-04-14T08:00:38.080Z,99.99
2018-04-14T08:01:38.657Z,99.99
2018-04-14T08:02:39.237Z,99.99
2018-04-14T08:03:39.861Z,99.99
2018-04-14T08:04:40.440Z,99.99
2018-04-14T08:05:41.013Z,99.99
2018-04-14T08:06:41.632Z,99.99
2018-04-14T08:07:42.208Z,99.99
2018-04-14T08:08:42.839Z,99.99
2018-04-14T08:09:43.408Z,99.99
2018-04-14T08:10:43.984Z,99.99
2018-04-14T08:11:44.710Z,99.99
2018-04-14T08:12:45.285Z,99.99
2018-04-14T08:13:45.862Z,99.99
2018-04-14T08:14:46.438Z,99.99
2018-04-14T08:15:47.015Z,99.99
2018-04-14T08:16:47.593Z,99.99
2018-04-14T08:17:48.168Z,99.99
2018-04-14T08:18:48.745Z,99.99
2018-04-14T08:19:49.323Z,99.99
2018-04-14T08:20:49.902Z,99.99
2018-04-14T08:21:50.475Z,99.99
2018-04-14T08:22:51.049Z,99.99
2018-04-14T08:23:51.624Z,99.99
2018-04-14T08:24:52.200Z,99.99
2018-04-14T08:25:52.830Z,99.99
2018-04-14T08:26:53.406Z,99.99
2018-04-14T08:27:53.982Z,99.99
2018-04-14T08:28:54.557Z,99.99
2018-04-14T08:29:55.184Z,99.99
2018-04-14T08:30:55.759Z,99.99
2018-04-14T08:31:56.337Z,99.99
2018-04-14T08:32:56.963Z,99.99
2018-04-14T08:33:57.540Z,99.99
2018-04-14T08:34:58.114Z,99.99
2018-04-14T08:35:58.692Z,99.99
2018-04-14T08:36:59.266Z,99.99
2018-04-14T08:37:59.843Z,99.99
2018-04-14T08:39:00.423Z,99.99
2018-04-14T08:40:00.997Z,99.99
2018-04-14T08:41:01.580Z,99.99
2018-04-14T08:42:02.157Z,99.99
2018-04-14T08:43:02.788Z,99.99
2018-04-14T08:44:03.375Z,99.99
2018-04-14T08:45:04.003Z,99.99
2018-04-14T08:46:04.583Z,99.99
2018-04-14T08:47:05.164Z,99.99
2018-04-14T08:48:05.774Z,99.99
2018-04-14T08:49:06.326Z,99.99
2018-04-14T08:50:06.911Z,99.99
2018-04-14T08:51:07.641Z,99.99
2018-04-14T08:52:08.223Z,99.99
2018-04-14T08:53:08.803Z,99.99
2018-04-14T08:54:09.384Z,99.99
2018-04-14T08:55:09.966Z,99.99
2018-04-14T08:56:10.596Z,99.99
2018-04-14T08:57:11.177Z,99.99
2018-04-14T08:58:11.760Z,99.99
2018-04-14T08:59:12.340Z,99.99
2018-04-14T09:00:12.921Z,99.99
2018-04-14T09:01:13.503Z,99.99
2018-04-14T09:02:14.083Z,99.99
2018-04-14T09:03:14.712Z,99.99
2018-04-14T09:04:15.443Z,99.99
2018-04-14T09:05:16.022Z,99.99
2018-04-14T09:06:16.607Z,99.99
2018-04-14T09:07:17.186Z,99.99
2018-04-14T09:08:17.766Z,99.99
2018-04-14T09:09:18.347Z,99.99
2018-04-14T09:10:18.978Z,99.99
2018-04-14T09:11:19.559Z,99.99
2018-04-14T09:12:20.140Z,99.99
2018-04-14T09:13:20.719Z,99.99
2018-04-14T09:14:21.299Z,99.99
2018-04-14T09:15:21.881Z,99.96
2018-04-14T09:16:22.463Z,99.99
2018-04-14T09:17:23.042Z,99.96
2018-04-14T09:18:23.626Z,99.96
2018-04-14T09:19:24.206Z,99.99
2018-04-14T09:20:24.788Z,99.99
2018-04-14T09:21:25.368Z,99.48
2018-04-14T09:22:25.999Z,99.67
2018-04-14T09:23:26.729Z,99.67
2018-04-14T09:24:27.315Z,99.67
2018-04-14T09:25:27.892Z,98.91
2018-04-14T09:26:28.477Z,99.29
2018-04-14T09:27:29.257Z,99.48
2018-04-14T09:28:29.838Z,99.38
2018-04-14T09:29:30.420Z,98.91
2018-04-14T09:30:31.002Z,99.38
2018-04-14T09:31:31.582Z,98.52
2018-04-14T09:32:32.164Z,98.86
2018-04-14T09:33:32.746Z,98.62
2018-04-14T09:34:33.327Z,98.19
2018-04-14T09:35:33.908Z,98.38
2018-04-14T09:36:34.491Z,98.67
2018-04-14T09:37:35.076Z,98.57
2018-04-14T09:38:35.654Z,98.10
2018-04-14T09:39:36.235Z,97.90
2018-04-14T09:40:36.817Z,97.61
2018-04-14T09:41:37.445Z,97.90
2018-04-14T09:42:38.030Z,98.00
2018-04-14T09:43:38.660Z,97.71
2018-04-14T09:44:39.249Z,97.80
2018-04-14T09:45:39.873Z,97.80
2018-04-14T09:46:40.606Z,97.80
2018-04-14T09:47:41.186Z,97.14
2018-04-14T09:48:41.769Z,97.61
2018-04-14T09:49:42.350Z,97.04
2018-04-14T09:50:42.931Z,97.71
2018-04-14T09:51:43.513Z,97.90
2018-04-14T09:52:44.096Z,96.75
2018-04-14T09:53:44.677Z,96.84
2018-04-14T09:54:45.259Z,96.47
2018-04-14T09:55:45.842Z,97.04
2018-04-14T09:56:46.426Z,96.66
2018-04-14T09:57:47.008Z,96.66
2018-04-14T09:58:47.640Z,96.47
2018-04-14T09:59:48.223Z,96.47
2018-04-14T10:00:48.809Z,96.56
2018-04-14T10:01:49.439Z,96.37
2018-04-14T10:02:50.023Z,96.75
2018-04-14T10:03:50.654Z,95.98
2018-04-14T10:04:51.240Z,96.18
2018-04-14T10:05:51.824Z,95.94
2018-04-14T10:06:52.405Z,95.51
2018-04-14T10:07:52.988Z,95.70
2018-04-14T10:08:53.576Z,95.46
2018-04-14T10:09:54.151Z,95.75
2018-04-14T10:10:54.735Z,95.26
2018-04-14T10:11:55.315Z,95.51
2018-04-14T10:12:55.895Z,95.84
2018-04-14T10:13:56.529Z,95.51
2018-04-14T10:14:57.172Z,95.84
2018-04-14T10:15:57.755Z,95.17
2018-04-14T10:16:58.336Z,94.89
2018-04-14T10:17:58.918Z,94.89
2018-04-14T10:18:59.506Z,94.59
2018-04-14T10:20:00.086Z,94.59
2018-04-14T10:21:00.670Z,94.21
2018-04-14T10:22:01.256Z,94.02
2018-04-14T10:23:01.931Z,94.02
2018-04-14T10:24:02.515Z,93.73
2018-04-14T10:25:03.146Z,94.02
2018-04-14T10:26:03.731Z,93.44
2018-04-14T10:27:04.372Z,93.54
2018-04-14T10:28:04.900Z,93.63
2018-04-14T10:29:05.533Z,93.54
2018-04-14T10:30:06.116Z,92.97
2018-04-14T10:31:06.698Z,92.97
2018-04-14T10:32:07.283Z,92.77
2018-04-14T10:33:07.910Z,92.39
2018-04-14T10:34:08.494Z,92.87
2018-04-14T10:35:09.079Z,92.39
2018-04-14T10:36:09.669Z,92.30
2018-04-14T10:37:10.245Z,92.49
2018-04-14T10:38:10.908Z,92.58
2018-04-14T10:39:11.463Z,92.87
2018-04-14T10:40:12.050Z,92.39
2018-04-14T10:41:12.682Z,92.87
2018-04-14T10:42:13.273Z,92.15
2018-04-14T10:43:13.853Z,91.91
2018-04-14T10:44:14.437Z,92.34
2018-04-14T10:45:15.023Z,91.86
2018-04-14T10:46:15.610Z,91.57
2018-04-14T10:47:16.196Z,90.81
2018-04-14T10:48:16.780Z,90.71
2018-04-14T10:49:17.416Z,90.81
2018-04-14T10:50:18.003Z,90.42
2018-04-14T10:51:18.590Z,90.42
2018-04-14T10:52:19.174Z,90.23
2018-04-14T10:53:19.761Z,90.37
2018-04-14T10:54:20.396Z,89.94
2018-04-14T10:55:20.984Z,89.47
2018-04-14T10:56:21.570Z,89.85
2018-04-14T10:57:22.156Z,89.56
2018-04-14T10:58:22.746Z,89.32
2018-04-14T10:59:23.331Z,89.12
2018-04-14T11:00:23.969Z,89.12
2018-04-14T11:01:24.559Z,89.22
2018-04-14T11:02:25.198Z,88.84
2018-04-14T11:03:25.787Z,88.65
2018-04-14T11:04:26.424Z,88.84
2018-04-14T11:05:27.016Z,89.32
2018-04-14T11:06:27.605Z,89.22
2018-04-14T11:07:28.197Z,89.12
2018-04-14T11:08:28.784Z,88.35
2018-04-14T11:09:29.374Z,88.35
2018-04-14T11:10:29.964Z,88.55
2018-04-14T11:11:30.558Z,88.74
2018-04-14T11:12:31.149Z,88.45
2018-04-14T11:13:31.739Z,88.84
2018-04-14T11:14:32.326Z,88.74
2018-04-14T11:15:32.916Z,88.35
2018-04-14T11:16:33.507Z,88.45
2018-04-14T11:17:34.096Z,87.73
2018-04-14T11:18:34.737Z,87.68
2018-04-14T11:19:35.376Z,88.45
2018-04-14T11:20:35.989Z,88.35
2018-04-14T11:21:36.607Z,87.98
2018-04-14T11:22:37.199Z,87.54
2018-04-14T11:23:37.792Z,87.15
2018-04-14T11:24:38.383Z,87.25
2018-04-14T11:25:38.975Z,87.44
2018-04-14T11:26:39.560Z,86.96
2018-04-14T11:29:07.516Z,86.58
2018-04-14T11:30:08.107Z,86.33
2018-04-14T11:31:08.750Z,86.29
2018-04-14T11:32:09.444Z,86.81
2018-04-14T11:33:10.087Z,86.72
2018-04-14T11:34:10.681Z,86.33
2018-04-14T11:36:26.624Z,86.62
2018-04-14T11:37:27.219Z,86.14
2018-04-14T11:38:27.813Z,85.66
2018-04-14T11:39:28.409Z,85.75
2018-04-14T11:40:29.045Z,85.32
2018-04-14T11:41:29.686Z,85.03
2018-04-14T11:42:30.275Z,84.94
2018-04-14T11:43:30.903Z,84.55
2018-04-14T11:44:31.466Z,84.55
2018-04-14T11:45:32.104Z,84.36
2018-04-14T11:46:32.656Z,84.17
2018-04-14T11:47:33.298Z,84.07
2018-04-14T11:48:33.897Z,83.73
2018-04-14T11:49:34.493Z,83.34
2018-04-14T11:50:35.085Z,83.06
2018-04-14T11:51:35.729Z,82.57
2018-04-14T11:52:36.376Z,82.76
2018-04-14T11:53:50.682Z,82.19
2018-04-14T11:54:51.270Z,81.52
2018-04-14T11:55:51.858Z,81.52
2018-04-14T11:57:18.179Z,80.60
2018-04-14T11:58:36.497Z,80.60
2018-04-14T11:59:37.083Z,80.69
2018-04-14T12:00:37.715Z,79.92
2018-04-14T12:02:53.754Z,79.48
2018-04-14T12:03:54.351Z,78.77
2018-04-14T12:04:54.950Z,78.71
2018-04-14T12:05:55.549Z,79.00
2018-04-14T12:06:56.146Z,78.42
2018-04-14T12:07:56.795Z,77.21
2018-04-14T12:08:57.394Z,77.40
2018-04-14T12:09:57.993Z,77.01
2018-04-14T12:10:58.637Z,77.01
2018-04-14T12:11:59.236Z,77.11
2018-04-14T12:12:59.984Z,76.92
2018-04-14T12:14:00.581Z,77.01
2018-04-14T12:15:01.180Z,75.99
2018-04-14T12:16:01.782Z,75.61
2018-04-14T12:17:02.416Z,75.23
2018-04-14T12:18:03.017Z,75.03
2018-04-14T12:19:03.612Z,74.65
2018-04-14T12:20:04.212Z,74.10
2018-04-14T12:21:04.806Z,74.10
2018-04-14T12:23:06.981Z,73.91
2018-04-14T12:24:07.622Z,74.01
2018-04-14T12:25:08.241Z,73.37
2018-04-14T12:26:08.847Z,72.69
2018-04-14T12:27:09.439Z,71.92
2018-04-14T12:28:10.032Z,71.64
2018-04-14T12:29:10.717Z,71.09
2018-04-14T12:30:11.310Z,71.00
2018-04-14T12:31:11.910Z,70.32
2018-04-14T12:32:12.560Z,69.84
2018-04-14T12:33:13.212Z,70.03
2018-04-14T12:34:13.815Z,70.36
2018-04-14T12:35:14.414Z,69.58
2018-04-14T12:36:15.018Z,69.20
2018-04-14T12:37:15.613Z,69.10
2018-04-14T12:38:16.256Z,68.36
2018-04-14T12:39:16.855Z,68.46
2018-04-14T12:40:17.454Z,68.36
2018-04-14T12:41:18.105Z,67.69
2018-04-14T12:42:18.702Z,67.49
2018-04-14T12:43:19.304Z,67.72
2018-04-14T12:44:19.902Z,67.52
2018-04-14T12:45:20.505Z,67.33
2018-04-14T12:46:21.151Z,66.85
2018-04-14T12:47:21.749Z,66.88
2018-04-14T12:48:22.348Z,66.20
2018-04-14T12:49:22.945Z,65.72
2018-04-14T12:50:23.594Z,66.01
2018-04-14T12:51:24.191Z,65.95
2018-04-14T12:52:24.791Z,65.56
2018-04-14T12:53:25.440Z,65.37
2018-04-14T12:54:26.074Z,65.17
2018-04-14T12:55:26.675Z,64.72
2018-04-14T12:56:27.271Z,64.72
2018-04-14T12:57:27.871Z,64.34
2018-04-14T12:58:28.472Z,64.43
2018-04-14T12:59:29.072Z,63.95
2018-04-14T13:00:29.671Z,64.14
2018-04-14T13:01:30.270Z,63.69
2018-04-14T13:02:30.871Z,63.49
2018-04-14T13:03:31.470Z,63.21
2018-04-14T13:04:32.070Z,62.53
2018-04-14T13:05:32.668Z,62.24
2018-04-14T13:06:33.271Z,62.37